createdAt,value
2023-10-13T00:00:38.643Z,100.00
2023-10-13T00:03:07.715Z,100.00
2023-10-13T00:05:36.138Z,100.00
2023-10-13T00:08:05.636Z,100.00
2023-10-13T00:10:34.749Z,100.00
2023-10-13T00:13:13.212Z,100.00
2023-10-13T00:15:57.641Z,100.00
2023-10-13T00:18:27.848Z,100.00
2023-10-13T00:20:57.955Z,100.00
2023-10-13T00:23:28.397Z,100.00
2023-10-13T00:26:00.374Z,100.00
2023-10-13T00:28:36.870Z,100.00
2023-10-13T00:31:13.183Z,100.00
2023-10-13T00:33:43.154Z,100.00
2023-10-13T00:36:20.442Z,100.00
2023-10-13T00:38:49.506Z,100.00
2023-10-13T00:41:19.012Z,100.00
2023-10-13T00:44:04.891Z,100.00
2023-10-13T00:46:36.253Z,100.00
2023-10-13T00:49:06.487Z,100.00
2023-10-13T00:51:35.902Z,100.00
2023-10-13T00:54:09.182Z,100.00
2023-10-13T00:56:42.290Z,100.00
2023-10-13T00:59:14.714Z,100.00
2023-10-13T01:01:44.596Z,100.00
2023-10-13T01:04:16.257Z,100.00
2023-10-13T01:06:44.497Z,100.00
2023-10-13T01:09:13.769Z,100.00
2023-10-13T01:11:43.977Z,100.00
2023-10-13T01:14:12.384Z,100.00
2023-10-13T01:16:44.782Z,100.00
2023-10-13T01:19:14.086Z,100.00
2023-10-13T01:21:43.043Z,100.00
2023-10-13T01:24:15.019Z,100.00
2023-10-13T01:26:44.139Z,100.00
2023-10-13T01:29:14.529Z,100.00
2023-10-13T01:31:48.164Z,100.00
2023-10-13T01:34:23.125Z,100.00
2023-10-13T01:36:52.443Z,100.00
2023-10-13T01:39:27.833Z,100.00
2023-10-13T01:41:57.610Z,100.00
2023-10-13T01:44:25.631Z,100.00
2023-10-13T01:46:53.669Z,100.00
2023-10-13T01:49:24.182Z,100.00
2023-10-13T01:51:52.361Z,100.00
2023-10-13T01:54:19.433Z,100.00
2023-10-13T01:56:50.035Z,100.00
2023-10-13T01:59:18.719Z,100.00
2023-10-13T02:01:46.985Z,100.00
2023-10-13T02:04:16.021Z,100.00
2023-10-13T02:06:44.464Z,100.00
2023-10-13T02:09:13.868Z,100.00
2023-10-13T02:11:42.804Z,100.00
2023-10-13T02:14:12.571Z,100.00
2023-10-13T02:16:41.310Z,100.00
2023-10-13T02:19:09.750Z,100.00
2023-10-13T02:21:44.933Z,100.00
2023-10-13T02:24:14.597Z,100.00
2023-10-13T02:26:43.162Z,100.00
2023-10-13T02:29:14.168Z,100.00
2023-10-13T02:31:55.352Z,100.00
2023-10-13T02:34:24.419Z,100.00
2023-10-13T02:36:53.089Z,100.00
2023-10-13T02:39:26.118Z,100.00
2023-10-13T02:41:56.963Z,100.00
2023-10-13T02:44:28.549Z,100.00
2023-10-13T02:46:57.655Z,100.00
2023-10-13T02:49:27.340Z,100.00
2023-10-13T02:51:56.839Z,100.00
2023-10-13T02:54:27.763Z,100.00
2023-10-13T02:56:59.076Z,100.00
2023-10-13T02:59:35.607Z,100.00
2023-10-13T03:02:19.858Z,100.00
2023-10-13T03:04:48.101Z,100.00
2023-10-13T03:07:23.900Z,100.00
2023-10-13T03:09:52.400Z,100.00
2023-10-13T03:12:22.651Z,100.00
2023-10-13T03:14:56.110Z,100.00
2023-10-13T03:17:34.400Z,100.00
2023-10-13T03:20:08.144Z,100.00
2023-10-13T03:22:36.311Z,100.00
2023-10-13T03:25:06.344Z,100.00
2023-10-13T03:27:41.503Z,100.00
2023-10-13T03:30:17.018Z,100.00
2023-10-13T03:32:48.099Z,100.00
2023-10-13T03:35:25.056Z,100.00
2023-10-13T03:37:54.235Z,100.00
2023-10-13T03:40:38.938Z,100.00
2023-10-13T03:43:11.091Z,100.00
2023-10-13T03:45:48.848Z,100.00
2023-10-13T03:48:29.710Z,100.00
2023-10-13T03:51:03.321Z,100.00
2023-10-13T03:53:35.357Z,100.00
2023-10-13T03:56:16.449Z,100.00
2023-10-13T03:58:47.818Z,100.00
2023-10-13T04:01:18.694Z,100.00
2023-10-13T04:04:04.939Z,100.00
2023-10-13T04:06:50.126Z,100.00
2023-10-13T04:09:35.932Z,100.00
2023-10-13T04:12:42.580Z,100.00
2023-10-13T04:15:19.240Z,100.00
2023-10-13T04:17:50.004Z,100.00
2023-10-13T04:20:34.236Z,100.00
2023-10-13T04:23:20.267Z,100.00
2023-10-13T04:26:06.195Z,100.00
2023-10-13T04:28:38.968Z,100.00
2023-10-13T04:31:25.977Z,100.00
2023-10-13T04:34:02.225Z,100.00
2023-10-13T04:36:46.454Z,100.00
2023-10-13T04:39:30.189Z,100.00
2023-10-13T04:42:14.449Z,100.00
2023-10-13T04:44:53.559Z,100.00
2023-10-13T04:47:22.979Z,100.00
2023-10-13T04:49:53.529Z,100.00
2023-10-13T04:52:39.694Z,100.00
2023-10-13T04:55:18.093Z,100.00
2023-10-13T04:57:50.805Z,100.00
2023-10-13T05:00:35.622Z,100.00
2023-10-13T05:03:39.639Z,100.00
2023-10-13T05:06:14.816Z,100.00
2023-10-13T05:09:00.193Z,100.00
2023-10-13T05:11:46.109Z,100.00
2023-10-13T05:14:31.451Z,100.00
2023-10-13T05:17:16.090Z,100.00
2023-10-13T05:20:01.444Z,100.00
2023-10-13T05:22:54.892Z,100.00
2023-10-13T05:25:40.540Z,100.00
2023-10-13T05:28:35.800Z,100.00
2023-10-13T05:31:22.622Z,100.00
2023-10-13T05:34:08.581Z,100.00
2023-10-13T05:36:54.193Z,100.00
2023-10-13T05:39:41.130Z,100.00
2023-10-13T05:42:26.416Z,100.00
2023-10-13T05:45:18.549Z,100.00
2023-10-13T05:47:52.079Z,100.00
2023-10-13T05:50:46.355Z,100.00
2023-10-13T05:53:31.994Z,100.00
2023-10-13T05:56:22.045Z,100.00
2023-10-13T05:59:07.425Z,100.00
2023-10-13T06:01:52.878Z,100.00
2023-10-13T06:04:38.403Z,100.00
2023-10-13T06:07:23.759Z,100.00
2023-10-13T06:10:11.078Z,100.00
2023-10-13T06:12:58.062Z,100.00
2023-10-13T06:15:43.313Z,100.00
2023-10-13T06:18:28.925Z,100.00
2023-10-13T06:21:14.569Z,100.00
2023-10-13T06:23:59.751Z,100.00
2023-10-13T06:26:45.043Z,100.00
2023-10-13T06:29:21.412Z,100.00
2023-10-13T06:31:50.324Z,100.00
2023-10-13T06:34:21.508Z,100.00
2023-10-13T06:36:49.817Z,100.00
2023-10-13T06:39:36.249Z,100.00
2023-10-13T06:42:05.002Z,100.00
2023-10-13T06:44:35.048Z,100.00
2023-10-13T06:47:05.331Z,100.00
2023-10-13T06:49:39.888Z,100.00
2023-10-13T06:52:08.753Z,100.00
2023-10-13T06:54:38.111Z,100.00
2023-10-13T06:57:11.615Z,100.00
2023-10-13T06:59:42.689Z,100.00
2023-10-13T07:02:28.067Z,100.00
2023-10-13T07:05:08.533Z,100.00
2023-10-13T07:07:38.121Z,100.00
2023-10-13T07:10:10.898Z,100.00
2023-10-13T07:12:44.159Z,100.00
2023-10-13T07:15:20.698Z,100.00
2023-10-13T07:17:55.797Z,100.00
2023-10-13T07:20:35.022Z,100.00
2023-10-13T07:23:10.030Z,100.00
2023-10-13T07:25:41.868Z,100.00
2023-10-13T07:28:10.642Z,100.00
2023-10-13T07:30:50.600Z,100.00
2023-10-13T07:33:21.551Z,100.00
2023-10-13T07:35:51.813Z,100.00
2023-10-13T07:38:22.415Z,100.00
2023-10-13T07:40:52.571Z,100.00
2023-10-13T07:43:22.950Z,100.00
2023-10-13T07:45:59.487Z,100.00
2023-10-13T07:48:28.036Z,100.00
2023-10-13T07:51:04.627Z,100.00
2023-10-13T07:53:36.737Z,100.00
2023-10-13T07:56:09.350Z,100.00
2023-10-13T07:58:48.753Z,100.00
2023-10-13T08:01:21.387Z,100.00
2023-10-13T08:04:08.078Z,100.00
2023-10-13T08:06:38.526Z,100.00
2023-10-13T08:09:30.605Z,100.00
2023-10-13T08:11:59.323Z,100.00
2023-10-13T08:14:37.783Z,100.00
2023-10-13T08:17:11.796Z,100.00
2023-10-13T08:19:46.220Z,100.00
2023-10-13T08:22:36.973Z,100.00
2023-10-13T08:25:21.894Z,100.00
2023-10-13T08:28:04.171Z,100.00
2023-10-13T08:30:32.459Z,100.00
2023-10-13T08:33:17.707Z,100.00
2023-10-13T08:36:16.988Z,100.00
2023-10-13T08:38:52.977Z,100.00
2023-10-13T08:41:32.930Z,100.00
2023-10-13T08:44:05.887Z,100.00
2023-10-13T08:46:53.197Z,100.00
2023-10-13T08:49:24.847Z,100.00
2023-10-13T08:52:27.434Z,100.00
2023-10-13T08:55:14.838Z,100.00
2023-10-13T08:57:50.841Z,100.00
2023-10-13T09:00:51.556Z,100.00
2023-10-13T09:03:30.073Z,100.00
2023-10-13T09:06:03.408Z,100.00
2023-10-13T09:08:36.895Z,100.00
2023-10-13T09:11:14.089Z,100.00
2023-10-13T09:13:47.837Z,100.00
2023-10-13T09:16:43.824Z,100.00
2023-10-13T09:19:13.233Z,100.00
2023-10-13T09:21:48.891Z,100.00
2023-10-13T09:24:23.974Z,100.00
2023-10-13T09:26:57.205Z,100.00
2023-10-13T09:29:25.720Z,100.00
2023-10-13T09:32:05.679Z,100.00
2023-10-13T09:34:36.198Z,100.00
2023-10-13T09:37:07.934Z,100.00
2023-10-13T09:39:45.755Z,100.00
2023-10-13T09:42:18.342Z,100.00
2023-10-13T09:44:52.792Z,100.00
2023-10-13T09:50:05.951Z,100.00
2023-10-13T09:52:38.683Z,100.00
2023-10-13T09:55:26.690Z,100.00
2023-10-13T09:58:10.960Z,100.00
2023-10-13T10:00:57.705Z,100.00
2023-10-13T10:03:41.246Z,100.00
2023-10-13T10:06:17.106Z,100.00
2023-10-13T10:08:52.370Z,100.00
2023-10-13T10:11:32.830Z,100.00
2023-10-13T10:14:13.482Z,100.00
2023-10-13T10:16:50.360Z,100.00
2023-10-13T10:19:19.642Z,100.00
2023-10-13T10:21:49.291Z,100.00
2023-10-13T10:24:25.350Z,100.00
2023-10-13T10:26:54.193Z,100.00
2023-10-13T10:29:22.242Z,100.00
2023-10-13T10:31:51.892Z,100.00
2023-10-13T10:34:23.595Z,100.00
2023-10-13T10:36:56.805Z,100.00
2023-10-13T10:39:46.277Z,100.00
2023-10-13T10:42:18.753Z,100.00
2023-10-13T10:44:56.364Z,100.00
2023-10-13T10:47:34.529Z,100.00
2023-10-13T10:50:08.747Z,100.00
2023-10-13T10:52:38.424Z,100.00
2023-10-13T10:55:14.027Z,100.00
2023-10-13T10:57:44.324Z,100.00
2023-10-13T11:00:21.794Z,100.00
2023-10-13T11:02:56.682Z,100.00
2023-10-13T11:05:26.043Z,100.00
2023-10-13T11:07:54.288Z,100.00
2023-10-13T11:10:29.258Z,100.00
2023-10-13T11:13:12.601Z,100.00
2023-10-13T11:15:45.784Z,100.00
2023-10-13T11:18:20.116Z,100.00
2023-10-13T11:20:51.090Z,100.00
2023-10-13T11:23:19.102Z,100.00
2023-10-13T11:25:49.565Z,100.00
2023-10-13T11:28:20.885Z,100.00
2023-10-13T11:30:51.791Z,100.00
2023-10-13T11:33:24.805Z,100.00
2023-10-13T11:35:59.292Z,100.00
2023-10-13T11:38:28.089Z,100.00
2023-10-13T11:41:23.217Z,100.00
2023-10-13T11:44:13.241Z,100.00
2023-10-13T11:47:21.828Z,100.00
2023-10-13T11:49:50.380Z,100.00
2023-10-13T11:52:18.420Z,100.00
2023-10-13T11:54:48.188Z,100.00
2023-10-13T11:57:20.889Z,100.00
2023-10-13T11:59:57.360Z,100.00
2023-10-13T12:02:43.150Z,100.00
2023-10-13T12:05:14.432Z,100.00
2023-10-13T12:07:46.705Z,100.00
2023-10-13T12:10:21.899Z,100.00
2023-10-13T12:12:54.659Z,100.00
2023-10-13T12:15:37.806Z,100.00
2023-10-13T12:18:07.232Z,100.00
2023-10-13T12:20:36.709Z,100.00
2023-10-13T12:23:18.271Z,100.00
2023-10-13T12:26:07.742Z,100.00
2023-10-13T12:28:42.133Z,100.00
2023-10-13T12:31:13.137Z,100.00
2023-10-13T12:33:42.521Z,100.00
2023-10-13T12:36:28.484Z,100.00
2023-10-13T12:39:14.159Z,100.00
2023-10-13T12:41:59.490Z,100.00
2023-10-13T12:44:47.851Z,100.00
2023-10-13T12:47:34.732Z,100.00
2023-10-13T12:50:15.325Z,100.00
2023-10-13T12:52:46.546Z,100.00
2023-10-13T12:55:16.023Z,100.00
2023-10-13T12:57:44.592Z,100.00
2023-10-13T13:00:27.168Z,100.00
2023-10-13T13:02:57.085Z,100.00
2023-10-13T13:05:29.921Z,100.00
2023-10-13T13:07:58.194Z,100.00
2023-10-13T13:10:37.443Z,100.00
2023-10-13T13:13:06.666Z,100.00
2023-10-13T13:15:36.400Z,100.00
2023-10-13T13:18:12.726Z,100.00
2023-10-13T13:20:54.999Z,100.00
2023-10-13T13:23:27.038Z,100.00
2023-10-13T13:25:58.293Z,100.00
2023-10-13T13:28:29.904Z,100.00
2023-10-13T13:30:59.851Z,100.00
2023-10-13T13:33:28.045Z,100.00
2023-10-13T13:36:00.857Z,100.00
2023-10-13T13:38:32.835Z,100.00
2023-10-13T13:41:03.104Z,100.00
2023-10-13T13:43:38.814Z,100.00
2023-10-13T13:46:11.854Z,100.00
2023-10-13T13:48:42.177Z,100.00
2023-10-13T13:51:16.507Z,100.00
2023-10-13T13:53:48.929Z,100.00
2023-10-13T13:56:19.261Z,100.00
2023-10-13T13:58:48.865Z,100.00
2023-10-13T14:01:20.229Z,100.00
2023-10-13T14:03:51.276Z,100.00
2023-10-13T14:06:22.499Z,100.00
2023-10-13T14:08:52.163Z,100.00
2023-10-13T14:11:37.727Z,100.00
2023-10-13T14:14:12.696Z,100.00
2023-10-13T14:16:46.601Z,100.00
2023-10-13T14:19:20.322Z,100.00
2023-10-13T14:21:54.563Z,100.00
2023-10-13T14:24:28.442Z,100.00
2023-10-13T14:26:56.612Z,100.00
2023-10-13T14:29:28.306Z,100.00
2023-10-13T14:31:57.802Z,100.00
2023-10-13T14:34:27.287Z,100.00
2023-10-13T14:36:55.680Z,100.00
2023-10-13T14:39:30.909Z,100.00
2023-10-13T14:42:01.271Z,100.00
2023-10-13T14:44:29.318Z,100.00
2023-10-13T14:46:58.988Z,100.00
2023-10-13T14:49:27.142Z,100.00
2023-10-13T14:51:56.263Z,100.00
2023-10-13T14:54:33.731Z,100.00
2023-10-13T14:57:03.505Z,100.00
2023-10-13T14:59:34.517Z,100.00
2023-10-13T15:02:04.661Z,100.00
2023-10-13T15:04:34.497Z,100.00
2023-10-13T15:07:04.033Z,100.00
2023-10-13T15:09:32.548Z,100.00
2023-10-13T15:12:00.512Z,100.00
2023-10-13T15:14:28.527Z,100.00
2023-10-13T15:17:01.544Z,100.00
2023-10-13T15:19:37.141Z,100.00
2023-10-13T15:22:07.156Z,100.00
2023-10-13T15:24:46.155Z,100.00
2023-10-13T15:27:16.149Z,100.00
2023-10-13T15:29:51.800Z,100.00
2023-10-13T15:32:37.306Z,100.00
2023-10-13T15:35:13.810Z,100.00
2023-10-13T15:37:42.999Z,100.00
2023-10-13T15:40:16.575Z,100.00
2023-10-13T15:42:46.118Z,100.00
2023-10-13T15:45:20.823Z,100.00
2023-10-13T15:50:23.438Z,100.00
2023-10-13T15:52:51.899Z,100.00
2023-10-13T15:55:19.971Z,100.00
2023-10-13T15:57:53.867Z,100.00
2023-10-13T16:00:25.314Z,100.00
2023-10-13T16:02:55.618Z,100.00
2023-10-13T16:05:26.126Z,100.00
2023-10-13T16:07:54.627Z,100.00
2023-10-13T16:10:25.883Z,100.00
2023-10-13T16:12:54.184Z,100.00
2023-10-13T16:15:22.915Z,100.00
2023-10-13T16:17:54.593Z,100.00
2023-10-13T16:20:23.573Z,100.00
2023-10-13T16:22:52.912Z,100.00
2023-10-13T16:25:22.250Z,100.00
2023-10-13T16:27:50.981Z,100.00
2023-10-13T16:30:20.768Z,100.00
2023-10-13T16:32:50.478Z,100.00
2023-10-13T16:35:19.933Z,100.00
2023-10-13T16:37:51.591Z,100.00
2023-10-13T16:40:23.267Z,100.00
2023-10-13T16:42:54.021Z,100.00
2023-10-13T16:45:22.702Z,100.00
2023-10-13T16:47:51.609Z,100.00
2023-10-13T16:50:19.870Z,100.00
2023-10-13T16:52:48.930Z,100.00
2023-10-13T16:55:18.965Z,100.00
2023-10-13T16:57:51.377Z,100.00
2023-10-13T17:00:26.691Z,100.00
2023-10-13T17:02:55.310Z,100.00
2023-10-13T17:05:23.424Z,100.00
2023-10-13T17:07:52.837Z,100.00
2023-10-13T17:10:21.033Z,100.00
2023-10-13T17:12:50.385Z,100.00
2023-10-13T17:15:22.773Z,100.00
2023-10-13T17:17:51.585Z,100.00
2023-10-13T17:20:19.610Z,100.00
2023-10-13T17:22:49.043Z,100.00
2023-10-13T17:25:17.229Z,100.00
2023-10-13T17:27:46.472Z,100.00
2023-10-13T17:30:15.961Z,100.00
2023-10-13T17:32:45.884Z,100.00
2023-10-13T17:35:14.172Z,100.00
2023-10-13T17:37:44.667Z,100.00
2023-10-13T17:40:17.422Z,100.00
2023-10-13T17:42:48.460Z,100.00
2023-10-13T17:45:18.056Z,100.00
2023-10-13T17:47:46.225Z,100.00
2023-10-13T17:50:15.213Z,100.00
2023-10-13T17:52:43.473Z,100.00
2023-10-13T17:55:12.204Z,100.00
2023-10-13T17:57:41.438Z,100.00
2023-10-13T18:00:16.148Z,100.00
2023-10-13T18:02:47.111Z,100.00
2023-10-13T18:05:16.650Z,100.00
2023-10-13T18:07:44.787Z,100.00
2023-10-13T18:10:14.727Z,100.00
2023-10-13T18:12:43.412Z,100.00
2023-10-13T18:15:14.862Z,100.00
2023-10-13T18:17:43.029Z,100.00
2023-10-13T18:20:16.188Z,100.00
2023-10-13T18:22:44.424Z,100.00
2023-10-13T18:25:14.125Z,100.00
2023-10-13T18:27:43.927Z,100.00
2023-10-13T18:30:13.684Z,100.00
2023-10-13T18:32:42.338Z,100.00
2023-10-13T18:35:13.277Z,100.00
2023-10-13T18:37:42.712Z,100.00
2023-10-13T18:40:14.039Z,100.00
2023-10-13T18:42:44.180Z,96.84
2023-10-13T18:45:14.564Z,97.16
2023-10-13T18:47:46.242Z,97.04
2023-10-13T18:50:16.626Z,95.63
2023-10-13T18:52:47.324Z,95.44
2023-10-13T18:55:15.737Z,93.72
2023-10-13T18:57:45.501Z,94.39
2023-10-13T19:00:16.667Z,95.23
2023-10-13T19:02:44.688Z,91.78
2023-10-13T19:05:13.021Z,92.39
2023-10-13T19:07:43.773Z,89.49
2023-10-13T19:10:16.672Z,88.09
2023-10-13T19:12:44.955Z,90.66
2023-10-13T19:15:14.702Z,89.00
2023-10-13T19:17:42.991Z,87.60
2023-10-13T19:20:16.766Z,85.90
2023-10-13T19:22:48.187Z,85.67
2023-10-13T19:25:16.209Z,85.43
2023-10-13T19:27:44.247Z,84.65
2023-10-13T19:30:12.733Z,85.58
2023-10-13T19:32:41.241Z,84.73
2023-10-13T19:35:10.278Z,85.09
2023-10-13T19:37:43.399Z,84.23
2023-10-13T19:40:13.846Z,84.62
2023-10-13T19:42:42.396Z,84.07
2023-10-13T19:45:13.816Z,83.66
2023-10-13T19:47:42.648Z,84.74
2023-10-13T19:50:14.143Z,83.77
2023-10-13T19:52:42.894Z,84.19
2023-10-13T19:55:17.287Z,84.57
2023-10-13T19:57:48.121Z,85.63
2023-10-13T20:00:22.068Z,84.21
2023-10-13T20:02:52.477Z,84.22
2023-10-13T20:05:22.364Z,85.43
2023-10-13T20:07:50.799Z,84.37
2023-10-13T20:10:20.128Z,84.11
2023-10-13T20:12:49.900Z,83.22
2023-10-13T20:15:18.096Z,84.23
2023-10-13T20:17:46.285Z,85.13
2023-10-13T20:20:17.727Z,83.61
2023-10-13T20:22:47.058Z,84.80
2023-10-13T20:25:16.759Z,86.11
2023-10-13T20:27:46.643Z,86.10
2023-10-13T20:30:17.754Z,84.86
2023-10-13T20:32:46.977Z,83.87
2023-10-13T20:35:23.075Z,84.80
2023-10-13T20:37:53.231Z,85.77
2023-10-13T20:40:21.573Z,85.51
2023-10-13T20:42:51.426Z,85.03
2023-10-13T20:45:24.112Z,85.06
2023-10-13T20:47:53.151Z,84.40
2023-10-13T20:50:21.686Z,83.60
2023-10-13T20:52:51.212Z,84.15
2023-10-13T20:55:19.898Z,84.77
2023-10-13T20:57:50.900Z,85.09
2023-10-13T21:00:23.738Z,85.17
2023-10-13T21:02:54.576Z,85.31
2023-10-13T21:05:23.954Z,85.39
2023-10-13T21:07:53.005Z,85.03
2023-10-13T21:10:21.973Z,86.40
2023-10-13T21:12:52.737Z,85.43
2023-10-13T21:15:25.458Z,86.36
2023-10-13T21:17:55.233Z,86.25
2023-10-13T21:20:23.316Z,86.38
2023-10-13T21:22:52.668Z,86.59
2023-10-13T21:25:28.165Z,87.01
2023-10-13T21:27:57.586Z,88.08
2023-10-13T21:30:27.084Z,86.30
2023-10-13T21:32:58.581Z,86.85
2023-10-13T21:35:28.746Z,86.32
2023-10-13T21:37:58.259Z,87.09
2023-10-13T21:40:29.739Z,87.58
2023-10-13T21:43:00.209Z,86.25
2023-10-13T21:45:28.842Z,87.11
2023-10-13T21:47:59.824Z,86.75
2023-10-13T21:50:28.369Z,87.70
2023-10-13T21:52:56.708Z,88.85
2023-10-13T21:55:27.751Z,88.36
2023-10-13T21:57:56.494Z,86.28
2023-10-13T22:00:53.003Z,86.09
2023-10-13T22:03:23.693Z,87.30
2023-10-13T22:05:52.344Z,86.52
2023-10-13T22:08:20.345Z,86.11
2023-10-13T22:10:50.153Z,85.35
2023-10-13T22:13:18.459Z,84.64
2023-10-13T22:15:46.548Z,86.34
2023-10-13T22:18:15.846Z,84.22
2023-10-13T22:20:48.776Z,84.22
2023-10-13T22:23:16.754Z,84.27
2023-10-13T22:25:46.429Z,86.51
2023-10-13T22:28:16.420Z,85.73
2023-10-13T22:30:44.983Z,83.52
2023-10-13T22:33:13.667Z,85.27
2023-10-13T22:35:42.408Z,83.30
2023-10-13T22:38:12.381Z,83.07
2023-10-13T22:40:41.772Z,83.40
2023-10-13T22:43:10.246Z,82.76
2023-10-13T22:45:37.278Z,81.65
2023-10-13T22:48:05.977Z,81.96
2023-10-13T22:50:34.056Z,81.05
2023-10-13T22:53:02.015Z,81.36
2023-10-13T22:55:37.225Z,80.90
2023-10-13T22:58:10.659Z,80.51
2023-10-13T23:00:50.877Z,79.32
2023-10-13T23:03:19.617Z,79.97
2023-10-13T23:05:54.071Z,80.57
2023-10-13T23:08:23.346Z,80.47
2023-10-13T23:10:53.528Z,80.63
2023-10-13T23:13:22.508Z,80.16
2023-10-13T23:15:54.555Z,80.24
2023-10-13T23:18:24.778Z,80.97
2023-10-13T23:20:53.584Z,79.33
2023-10-13T23:23:25.555Z,78.01
2023-10-13T23:25:56.364Z,79.03
2023-10-13T23:28:35.919Z,78.41
2023-10-13T23:31:06.139Z,76.48
2023-10-13T23:33:34.335Z,76.51
2023-10-13T23:36:04.043Z,76.77
2023-10-13T23:38:35.698Z,76.94
2023-10-13T23:41:06.350Z,76.40
2023-10-13T23:43:44.043Z,78.78
2023-10-13T23:46:12.833Z,80.55
2023-10-13T23:48:44.544Z,82.83
2023-10-13T23:51:14.026Z,83.47
2023-10-13T23:53:46.448Z,84.39
2023-10-13T23:56:17.088Z,84.76
2023-10-13T23:58:59.096Z,85.15
